« Back
NWS Peachtree City, Ga » Text Product » MCN Terminal Aerodrome Forecast


Printer-friendly Version
Current Version              Previous Versions:   1  2  3  4  5  6  7  8  9  

Terminal Aerodrome Forecast

694
FTUS42 KFFC 250759 AAA
TAFMCN
TAF AMD
KMCN 250759Z 2508/2606 13006KT P6SM BKN020
     FM251100 09005KT 4SM BR BKN007
     FM251500 12006KT P6SM OVC015
     FM251700 13006KT P6SM VCSH BKN025
     FM252000 13005KT P6SM VCTS BKN035CB=



USA.gov is the U.S. government's official web portal to all federal, state and local government web resources and services.